createdAt,value
2023-01-29T00:02:10.753Z,-0.40
2023-01-29T00:04:40.417Z,-0.50
2023-01-29T00:07:10.273Z,-0.40
2023-01-29T00:09:40.269Z,-0.50
2023-01-29T00:12:09.987Z,-0.60
2023-01-29T00:14:40.920Z,-0.50
2023-01-29T00:17:11.274Z,-0.50
2023-01-29T00:19:41.130Z,-0.50
2023-01-29T00:22:11.111Z,-0.50
2023-01-29T00:24:41.517Z,-0.40
2023-01-29T00:27:11.260Z,-0.50
2023-01-29T00:29:43.498Z,-0.50
2023-01-29T00:32:13.460Z,-0.50
2023-01-29T00:34:43.000Z,-0.50
2023-01-29T00:37:12.942Z,-0.50
2023-01-29T00:39:48.256Z,-0.50
2023-01-29T00:42:35.999Z,-0.60
2023-01-29T00:45:07.540Z,-0.60
2023-01-29T00:47:37.382Z,-0.50
2023-01-29T00:50:09.799Z,-0.50
2023-01-29T00:52:40.994Z,-0.50
2023-01-29T00:55:12.923Z,-0.30
2023-01-29T00:57:45.144Z,-0.30
2023-01-29T01:00:19.715Z,-0.20
2023-01-29T01:03:07.379Z,-0.30
2023-01-29T01:05:39.093Z,-0.30
2023-01-29T01:08:28.669Z,-0.30
2023-01-29T01:11:02.686Z,-0.30
2023-01-29T01:13:33.280Z,-0.30
2023-01-29T01:16:09.628Z,-0.30
2023-01-29T01:18:39.589Z,-0.40
2023-01-29T01:21:09.723Z,-0.50
2023-01-29T01:23:39.906Z,-0.50
2023-01-29T01:26:12.232Z,-0.50
2023-01-29T01:28:42.105Z,-0.50
2023-01-29T01:31:15.525Z,-0.50
2023-01-29T01:33:45.502Z,-0.50
2023-01-29T01:36:15.781Z,-0.50
2023-01-29T01:38:45.568Z,-0.50
2023-01-29T01:41:17.051Z,-0.50
2023-01-29T01:43:52.927Z,-0.50
2023-01-29T01:46:24.527Z,-0.50
2023-01-29T01:49:00.188Z,-0.60
2023-01-29T01:51:32.943Z,-0.50
2023-01-29T01:54:06.422Z,-0.70
2023-01-29T01:56:42.667Z,-0.70
2023-01-29T01:59:16.314Z,-0.90
2023-01-29T02:01:52.100Z,-0.90
2023-01-29T02:04:42.596Z,-0.90
2023-01-29T02:07:33.278Z,-1.00
2023-01-29T02:10:09.433Z,-1.00
2023-01-29T02:12:39.662Z,-1.10
2023-01-29T02:15:09.808Z,-1.10
2023-01-29T02:17:41.044Z,-1.00
2023-01-29T02:20:19.333Z,-1.00
2023-01-29T02:23:06.720Z,-1.10
2023-01-29T02:26:01.061Z,-1.20
2023-01-29T02:28:40.577Z,-1.20
2023-01-29T02:31:16.482Z,-1.20
2023-01-29T02:33:56.818Z,-1.20
2023-01-29T02:36:33.045Z,-1.10
2023-01-29T02:39:12.583Z,-1.10
2023-01-29T02:41:47.312Z,-1.20
2023-01-29T02:44:24.712Z,-1.20
2023-01-29T02:46:59.312Z,-1.10
2023-01-29T02:49:37.428Z,-1.00
2023-01-29T02:52:14.428Z,-0.90
2023-01-29T02:54:48.921Z,-0.90
2023-01-29T02:57:22.479Z,-0.80
2023-01-29T02:59:56.477Z,-0.80
2023-01-29T03:02:33.321Z,-0.80
2023-01-29T03:05:08.247Z,-0.80
2023-01-29T03:07:42.880Z,-0.90
2023-01-29T03:10:16.913Z,-0.90
2023-01-29T03:12:49.158Z,-1.10
2023-01-29T03:15:26.597Z,-1.20
2023-01-29T03:17:59.310Z,-1.20
2023-01-29T03:20:34.326Z,-1.20
2023-01-29T03:23:07.494Z,-1.20
2023-01-29T03:25:57.377Z,-1.20
2023-01-29T03:28:46.222Z,-1.10
2023-01-29T03:31:35.926Z,-1.00
2023-01-29T03:34:16.233Z,-1.00
2023-01-29T03:36:55.717Z,-1.00
2023-01-29T03:39:28.240Z,-1.00
2023-01-29T03:42:03.802Z,-1.00
2023-01-29T03:44:40.317Z,-1.10
2023-01-29T03:47:19.931Z,-1.10
2023-01-29T03:49:57.653Z,-1.10
2023-01-29T03:52:35.062Z,-1.00
2023-01-29T03:55:10.638Z,-1.00
2023-01-29T03:57:45.480Z,-1.00
2023-01-29T04:00:19.286Z,-1.30
2023-01-29T04:02:57.575Z,-1.30
2023-01-29T04:05:33.041Z,-1.20
2023-01-29T04:08:07.538Z,-1.20
2023-01-29T04:10:39.632Z,-1.20
2023-01-29T04:13:11.390Z,-1.20
2023-01-29T04:15:43.484Z,-1.20
2023-01-29T04:18:14.705Z,-1.20
2023-01-29T04:20:44.979Z,-1.10
2023-01-29T04:23:23.974Z,-1.10
2023-01-29T04:26:07.166Z,-1.10
2023-01-29T04:28:51.849Z,-1.20
2023-01-29T04:31:29.341Z,-1.30
2023-01-29T04:34:06.990Z,-1.40
2023-01-29T04:36:45.833Z,-1.40
2023-01-29T04:39:21.940Z,-1.40
2023-01-29T04:41:54.999Z,-1.60
2023-01-29T04:44:30.228Z,-1.60
2023-01-29T04:47:07.008Z,-1.60
2023-01-29T04:49:45.716Z,-1.60
2023-01-29T04:52:24.208Z,-1.50
2023-01-29T04:55:02.523Z,-1.50
2023-01-29T04:57:42.296Z,-1.40
2023-01-29T05:00:16.328Z,-1.50
2023-01-29T05:02:47.632Z,-1.50
2023-01-29T05:05:20.362Z,-1.50
2023-01-29T05:07:51.413Z,-1.50
2023-01-29T05:10:21.272Z,-1.60
2023-01-29T05:12:57.832Z,-1.70
2023-01-29T05:15:30.377Z,-1.80
2023-01-29T05:18:02.785Z,-1.80
2023-01-29T05:20:36.829Z,-1.80
2023-01-29T05:23:09.900Z,-1.70
2023-01-29T05:25:39.853Z,-1.80
2023-01-29T05:28:16.196Z,-1.90
2023-01-29T05:30:47.871Z,-1.90
2023-01-29T05:33:19.454Z,-2.00
2023-01-29T05:35:50.918Z,-2.00
2023-01-29T05:38:21.166Z,-1.90
2023-01-29T05:40:51.070Z,-1.90
2023-01-29T05:43:22.985Z,-1.90
2023-01-29T05:45:57.094Z,-1.80
2023-01-29T05:48:27.651Z,-1.70
2023-01-29T05:51:03.433Z,-1.50
2023-01-29T05:53:34.592Z,-1.40
2023-01-29T05:56:05.331Z,-1.40
2023-01-29T05:58:36.127Z,-1.40
2023-01-29T06:01:11.854Z,-1.50
2023-01-29T06:03:41.563Z,-1.60
2023-01-29T06:06:13.087Z,-1.50
2023-01-29T06:08:42.753Z,-1.60
2023-01-29T06:11:11.945Z,-1.50
2023-01-29T06:13:41.793Z,-1.40
2023-01-29T06:16:13.473Z,-1.40
2023-01-29T06:18:43.593Z,-1.40
2023-01-29T06:21:16.543Z,-1.40
2023-01-29T06:23:46.472Z,-1.40
2023-01-29T06:26:17.284Z,-1.50
2023-01-29T06:28:49.153Z,-1.60
2023-01-29T06:31:36.867Z,-1.70
2023-01-29T06:34:07.825Z,-1.60
2023-01-29T06:36:39.152Z,-1.60
2023-01-29T06:39:08.705Z,-1.60
2023-01-29T06:41:38.678Z,-1.60
2023-01-29T06:44:08.727Z,-1.60
2023-01-29T06:46:39.056Z,-1.60
2023-01-29T06:49:08.859Z,-1.70
2023-01-29T06:51:39.798Z,-1.60
2023-01-29T06:54:10.781Z,-1.50
2023-01-29T06:56:40.626Z,-1.50
2023-01-29T06:59:12.228Z,-1.60
2023-01-29T07:01:44.353Z,-1.60
2023-01-29T07:04:14.491Z,-1.60
2023-01-29T07:06:45.651Z,-1.50
2023-01-29T07:09:16.063Z,-1.50
2023-01-29T07:11:45.643Z,-1.50
2023-01-29T07:14:15.400Z,-1.50
2023-01-29T07:16:45.161Z,-1.50
2023-01-29T07:19:15.302Z,-1.60
2023-01-29T07:21:46.604Z,-1.60
2023-01-29T07:24:16.959Z,-1.60
2023-01-29T07:26:46.807Z,-1.60
2023-01-29T07:29:16.612Z,-1.50
2023-01-29T07:31:46.476Z,-1.40
2023-01-29T07:34:16.317Z,-1.40
2023-01-29T07:36:47.496Z,-1.40
2023-01-29T07:39:17.362Z,-1.40
2023-01-29T07:41:47.194Z,-1.40
2023-01-29T07:44:17.440Z,-1.40
2023-01-29T07:46:46.981Z,-1.40
2023-01-29T07:49:16.893Z,-1.40
2023-01-29T07:51:47.943Z,-1.30
2023-01-29T07:54:19.261Z,-1.40
2023-01-29T07:56:48.925Z,-1.40
2023-01-29T07:59:19.554Z,-1.40
2023-01-29T08:01:49.340Z,-1.40
2023-01-29T08:04:19.225Z,-1.30
2023-01-29T08:06:50.312Z,-1.20
2023-01-29T08:09:20.308Z,-1.20
2023-01-29T08:11:50.201Z,-1.10
2023-01-29T08:14:23.537Z,-1.00
2023-01-29T08:16:53.471Z,-0.90
2023-01-29T08:19:23.379Z,-0.70
2023-01-29T08:21:55.180Z,-0.60
2023-01-29T08:24:31.290Z,-0.60
2023-01-29T08:27:11.803Z,-0.70
2023-01-29T08:29:41.283Z,-0.70
2023-01-29T08:32:13.145Z,-0.80
2023-01-29T08:34:42.949Z,-0.80
2023-01-29T08:37:14.041Z,-0.80
2023-01-29T08:39:43.819Z,-0.90
2023-01-29T08:42:13.590Z,-0.90
2023-01-29T08:44:43.364Z,-0.90
2023-01-29T08:47:13.123Z,-0.80
2023-01-29T08:49:42.953Z,-0.70
2023-01-29T08:52:14.119Z,-0.60
2023-01-29T08:54:43.863Z,-0.50
2023-01-29T08:57:13.629Z,-0.40
2023-01-29T08:59:43.447Z,-0.30
2023-01-29T09:02:14.320Z,-0.30
2023-01-29T09:04:43.852Z,-0.40
2023-01-29T09:07:14.920Z,-0.50
2023-01-29T09:09:44.690Z,-0.40
2023-01-29T09:12:14.388Z,-0.30
2023-01-29T09:14:44.173Z,-0.20
2023-01-29T09:17:14.043Z,-0.20
2023-01-29T09:19:43.848Z,-0.20
2023-01-29T09:22:14.990Z,-0.10
2023-01-29T09:24:44.733Z,-0.20
2023-01-29T09:27:14.348Z,-0.10
2023-01-29T09:29:44.103Z,-0.20
2023-01-29T09:32:14.651Z,-0.30
2023-01-29T09:34:44.210Z,-0.20
2023-01-29T09:37:17.488Z,-0.10
2023-01-29T09:39:47.050Z,-0.20
2023-01-29T09:42:25.286Z,-0.30
2023-01-29T09:45:01.348Z,-0.30
2023-01-29T09:47:32.999Z,-0.20
2023-01-29T09:50:06.691Z,-0.20
2023-01-29T09:52:41.048Z,-0.10
2023-01-29T09:55:17.997Z,-0.10
2023-01-29T09:57:50.316Z,-0.10
2023-01-29T10:00:23.546Z,-0.10
2023-01-29T10:03:08.007Z,0.00
2023-01-29T10:05:59.605Z,-0.10
2023-01-29T10:08:47.345Z,0.00
2023-01-29T10:11:26.263Z,0.10
2023-01-29T10:14:05.397Z,0.10
2023-01-29T10:16:42.696Z,0.30
2023-01-29T10:19:34.792Z,0.20
2023-01-29T10:22:40.207Z,0.20
2023-01-29T10:25:15.376Z,-0.10
2023-01-29T10:27:52.688Z,-0.30
2023-01-29T10:30:30.820Z,-0.40
2023-01-29T10:33:03.779Z,-0.30
2023-01-29T10:35:35.423Z,0.00
2023-01-29T10:38:16.853Z,0.10
2023-01-29T10:40:53.340Z,0.20
2023-01-29T10:43:29.817Z,0.00
2023-01-29T10:46:07.017Z,-0.10
2023-01-29T10:48:56.105Z,-0.20
2023-01-29T10:51:39.256Z,-0.30
2023-01-29T10:54:22.230Z,-0.20
2023-01-29T10:57:03.785Z,0.00
2023-01-29T10:59:50.016Z,-0.20
2023-01-29T11:02:22.578Z,-0.20
2023-01-29T11:04:52.264Z,-0.40
2023-01-29T11:07:23.285Z,-0.10
2023-01-29T11:09:57.348Z,0.00
2023-01-29T11:12:30.677Z,-0.10
2023-01-29T11:15:06.382Z,0.10
2023-01-29T11:17:36.257Z,0.40
2023-01-29T11:20:07.274Z,0.60
2023-01-29T11:22:37.424Z,0.70
2023-01-29T11:25:11.213Z,0.70
2023-01-29T11:27:46.303Z,0.70
2023-01-29T11:30:22.689Z,0.30
2023-01-29T11:32:58.016Z,0.20
2023-01-29T11:35:30.584Z,0.10
2023-01-29T11:38:10.099Z,0.40
2023-01-29T11:40:41.846Z,0.70
2023-01-29T11:43:32.029Z,0.50
2023-01-29T11:46:05.032Z,0.40
2023-01-29T11:48:44.664Z,0.60
2023-01-29T11:51:23.179Z,0.80
2023-01-29T11:53:56.305Z,0.90
2023-01-29T11:56:29.350Z,0.80
2023-01-29T11:59:04.282Z,1.00
2023-01-29T12:01:37.685Z,1.10
2023-01-29T12:04:19.697Z,1.20
2023-01-29T12:06:53.077Z,1.20
2023-01-29T12:09:27.128Z,1.30
2023-01-29T12:12:18.681Z,0.80
2023-01-29T12:15:03.180Z,0.70
2023-01-29T12:17:34.648Z,1.00
2023-01-29T12:20:11.631Z,1.40
2023-01-29T12:22:46.681Z,1.80
2023-01-29T12:25:23.387Z,1.90
2023-01-29T12:27:56.934Z,1.50
2023-01-29T12:30:32.448Z,0.90
2023-01-29T12:33:06.151Z,0.60
2023-01-29T12:35:43.247Z,0.60
2023-01-29T12:38:18.784Z,0.90
2023-01-29T12:40:53.326Z,1.10
2023-01-29T12:43:32.243Z,0.90
2023-01-29T12:46:07.536Z,0.80
2023-01-29T12:48:40.374Z,0.70
2023-01-29T12:51:12.607Z,0.90
2023-01-29T12:53:45.975Z,0.70
2023-01-29T12:56:21.999Z,0.50
2023-01-29T12:58:55.660Z,0.50
2023-01-29T13:01:34.203Z,0.50
2023-01-29T13:04:10.562Z,0.40
2023-01-29T13:06:46.267Z,0.30
2023-01-29T13:09:21.829Z,0.40
2023-01-29T13:11:55.487Z,0.40
2023-01-29T13:14:29.869Z,0.30
2023-01-29T13:17:08.727Z,0.30
2023-01-29T13:19:43.258Z,0.30
2023-01-29T13:22:20.647Z,0.30
2023-01-29T13:25:03.663Z,0.40
2023-01-29T13:27:37.365Z,0.50
2023-01-29T13:30:09.059Z,0.40
2023-01-29T13:32:40.123Z,0.60
2023-01-29T13:35:17.273Z,0.60
2023-01-29T13:37:51.952Z,0.70
2023-01-29T13:40:27.432Z,0.60
2023-01-29T13:43:00.799Z,0.60
2023-01-29T13:45:35.007Z,0.70
2023-01-29T13:48:22.719Z,0.50
2023-01-29T13:50:54.683Z,0.60
2023-01-29T13:53:28.448Z,0.60
2023-01-29T13:56:17.296Z,0.70
2023-01-29T13:58:57.740Z,0.50
2023-01-29T14:02:05.476Z,0.40
2023-01-29T14:04:36.555Z,0.30
2023-01-29T14:07:48.639Z,0.30
2023-01-29T14:10:18.778Z,0.20
2023-01-29T14:12:49.342Z,0.20
2023-01-29T14:15:26.809Z,0.20
2023-01-29T14:18:07.667Z,0.20
2023-01-29T14:20:46.068Z,0.50
2023-01-29T14:23:25.361Z,0.40
2023-01-29T14:25:55.511Z,0.30
2023-01-29T14:28:27.895Z,0.30
2023-01-29T14:30:56.540Z,0.40
2023-01-29T14:33:28.778Z,0.50
2023-01-29T14:36:05.394Z,0.50
2023-01-29T14:38:35.741Z,0.40
2023-01-29T14:41:08.861Z,0.40
2023-01-29T14:43:38.438Z,0.40
2023-01-29T14:46:43.424Z,0.30
2023-01-29T14:49:13.138Z,0.30
2023-01-29T14:51:46.976Z,0.30
2023-01-29T14:54:24.167Z,0.30
2023-01-29T14:57:00.286Z,0.30
2023-01-29T14:59:34.600Z,0.30
2023-01-29T15:02:11.569Z,0.20
2023-01-29T15:04:47.582Z,0.20
2023-01-29T15:07:28.570Z,0.20
2023-01-29T15:10:21.411Z,0.10
2023-01-29T15:12:58.158Z,0.20
2023-01-29T15:15:34.710Z,0.10
2023-01-29T15:18:07.891Z,0.10
2023-01-29T15:20:39.707Z,0.00
2023-01-29T15:23:27.513Z,0.10
2023-01-29T15:26:01.630Z,0.00
2023-01-29T15:28:33.211Z,-0.10
2023-01-29T15:31:05.575Z,-0.10
2023-01-29T15:33:38.535Z,-0.10
2023-01-29T15:36:08.697Z,-0.10
2023-01-29T15:38:40.402Z,-0.10
2023-01-29T15:41:21.141Z,-0.20
2023-01-29T15:43:57.800Z,-0.30
2023-01-29T15:46:30.734Z,-0.30
2023-01-29T15:49:07.047Z,-0.40
2023-01-29T15:51:37.400Z,-0.40
2023-01-29T15:54:14.671Z,-0.50
2023-01-29T15:56:48.854Z,-0.60
2023-01-29T15:59:24.147Z,-0.60
2023-01-29T16:01:53.965Z,-0.60
2023-01-29T16:04:28.784Z,-0.70
2023-01-29T16:07:00.040Z,-0.70
2023-01-29T16:09:32.154Z,-0.80
2023-01-29T16:12:02.201Z,-0.80
2023-01-29T16:14:32.293Z,-0.90
2023-01-29T16:17:23.432Z,-0.80
2023-01-29T16:19:59.592Z,-1.00
2023-01-29T16:22:30.722Z,-1.00
2023-01-29T16:25:05.768Z,-1.00
2023-01-29T16:27:36.146Z,-1.10
2023-01-29T16:30:07.602Z,-1.10
2023-01-29T16:32:37.527Z,-1.20
2023-01-29T16:35:08.657Z,-1.30
2023-01-29T16:37:38.867Z,-1.30
2023-01-29T16:40:16.681Z,-1.30
2023-01-29T16:42:46.325Z,-1.30
2023-01-29T16:45:27.191Z,-1.30
2023-01-29T16:48:20.105Z,-1.40
2023-01-29T16:50:54.887Z,-1.40
2023-01-29T16:53:27.375Z,-1.40
2023-01-29T16:56:06.733Z,-1.40
2023-01-29T16:58:37.132Z,-1.50
2023-01-29T17:01:10.276Z,-1.60
2023-01-29T17:03:41.380Z,-1.70
2023-01-29T17:06:20.734Z,-1.70
2023-01-29T17:08:50.719Z,-1.70
2023-01-29T17:11:29.059Z,-1.80
2023-01-29T17:13:59.822Z,-1.90
2023-01-29T17:16:31.810Z,-1.90
2023-01-29T17:19:01.991Z,-2.00
2023-01-29T17:21:32.359Z,-2.10
2023-01-29T17:24:02.167Z,-2.00
2023-01-29T17:26:33.780Z,-1.90
2023-01-29T17:29:03.714Z,-1.90
2023-01-29T17:31:33.653Z,-1.90
2023-01-29T17:34:03.622Z,-1.90
2023-01-29T17:36:33.179Z,-1.90
2023-01-29T17:39:03.248Z,-2.00
2023-01-29T17:41:35.212Z,-2.00
2023-01-29T17:44:05.083Z,-2.10
2023-01-29T17:46:35.003Z,-2.10
2023-01-29T17:49:07.465Z,-2.10
2023-01-29T17:51:37.226Z,-2.20
2023-01-29T17:54:06.983Z,-2.20
2023-01-29T17:56:37.957Z,-2.20
2023-01-29T17:59:14.026Z,-2.30
2023-01-29T18:01:43.665Z,-2.30
2023-01-29T18:04:13.833Z,-2.30
2023-01-29T18:06:45.093Z,-2.40
2023-01-29T18:09:17.176Z,-2.40
2023-01-29T18:11:49.206Z,-2.50
2023-01-29T18:14:19.137Z,-2.40
2023-01-29T18:16:49.386Z,-2.40
2023-01-29T18:19:27.196Z,-2.40
2023-01-29T18:21:57.025Z,-2.30
2023-01-29T18:24:27.070Z,-2.40
2023-01-29T18:26:58.053Z,-2.30
2023-01-29T18:29:30.123Z,-2.30
2023-01-29T18:32:00.143Z,-2.30
2023-01-29T18:34:29.889Z,-2.30
2023-01-29T18:37:00.249Z,-2.20
2023-01-29T18:39:32.851Z,-2.20
2023-01-29T18:42:04.104Z,-2.10
2023-01-29T18:44:34.023Z,-2.10
2023-01-29T18:47:05.207Z,-2.00
2023-01-29T18:49:38.743Z,-1.90
2023-01-29T18:52:09.149Z,-1.90
2023-01-29T18:54:40.693Z,-1.80
2023-01-29T18:57:14.474Z,-1.70
2023-01-29T18:59:59.742Z,-1.70
2023-01-29T19:02:29.542Z,-1.50
2023-01-29T19:04:59.607Z,-1.50
2023-01-29T19:07:29.606Z,-1.50
2023-01-29T19:09:59.327Z,-1.50
2023-01-29T19:12:30.579Z,-1.40
2023-01-29T19:15:00.494Z,-1.50
2023-01-29T19:17:30.359Z,-1.50
2023-01-29T19:20:02.072Z,-1.60
2023-01-29T19:22:31.924Z,-1.70
2023-01-29T19:25:01.603Z,-1.70
2023-01-29T19:27:32.791Z,-1.70
2023-01-29T19:30:05.483Z,-1.70
2023-01-29T19:32:35.355Z,-1.80
2023-01-29T19:35:05.298Z,-1.80
2023-01-29T19:37:35.261Z,-1.80
2023-01-29T19:40:05.044Z,-1.80
2023-01-29T19:42:37.427Z,-1.90
2023-01-29T19:45:08.767Z,-1.90
2023-01-29T19:47:42.236Z,-1.80
2023-01-29T19:50:14.117Z,-1.90
2023-01-29T19:52:51.884Z,-1.90
2023-01-29T19:55:22.355Z,-1.80
2023-01-29T19:57:55.005Z,-1.70
2023-01-29T20:00:25.813Z,-1.80
2023-01-29T20:02:55.640Z,-1.80
2023-01-29T20:05:27.140Z,-1.90
2023-01-29T20:07:56.879Z,-1.90
2023-01-29T20:10:27.547Z,-2.00
2023-01-29T20:12:58.906Z,-1.90
2023-01-29T20:15:28.750Z,-1.80
2023-01-29T20:17:58.972Z,-1.80
2023-01-29T20:20:32.821Z,-1.90
2023-01-29T20:23:02.793Z,-1.80
2023-01-29T20:25:33.570Z,-1.80
2023-01-29T20:28:04.934Z,-1.90
2023-01-29T20:30:35.650Z,-1.80
2023-01-29T20:33:05.955Z,-1.70
2023-01-29T20:35:36.725Z,-1.70
2023-01-29T20:38:07.460Z,-1.70
2023-01-29T20:40:37.389Z,-1.80
2023-01-29T20:43:08.269Z,-1.80
2023-01-29T20:45:39.829Z,-1.80
2023-01-29T20:48:09.519Z,-1.70
2023-01-29T20:50:39.544Z,-1.80
2023-01-29T20:53:09.042Z,-1.80
2023-01-29T20:55:36.913Z,-1.80
2023-01-29T20:58:09.095Z,-1.90
2023-01-29T21:00:38.980Z,-1.80
2023-01-29T21:03:09.212Z,-1.80
2023-01-29T21:05:39.092Z,-1.80
2023-01-29T21:08:08.817Z,-1.80
2023-01-29T21:10:38.857Z,-1.80
2023-01-29T21:13:10.017Z,-1.80
2023-01-29T21:15:39.906Z,-1.90
2023-01-29T21:18:09.648Z,-1.90
2023-01-29T21:20:39.579Z,-1.90
2023-01-29T21:23:09.477Z,-1.90
2023-01-29T21:25:39.588Z,-1.90
2023-01-29T21:28:10.993Z,-1.90
2023-01-29T21:30:40.869Z,-1.90
2023-01-29T21:33:10.793Z,-2.00
2023-01-29T21:35:40.560Z,-2.00
2023-01-29T21:38:10.277Z,-2.00
2023-01-29T21:40:40.083Z,-2.10
2023-01-29T21:43:15.927Z,-2.10
2023-01-29T21:45:45.662Z,-2.00
2023-01-29T21:48:15.582Z,-2.00
2023-01-29T21:50:48.568Z,-2.00
2023-01-29T21:53:18.301Z,-2.00
2023-01-29T21:55:47.951Z,-1.90
2023-01-29T21:58:20.775Z,-1.80
2023-01-29T22:00:50.754Z,-1.80
2023-01-29T22:03:20.636Z,-1.80
2023-01-29T22:05:50.973Z,-1.70
2023-01-29T22:08:20.807Z,-1.70
2023-01-29T22:10:50.841Z,-1.70
2023-01-29T22:13:21.890Z,-1.60
2023-01-29T22:15:55.205Z,-1.60
2023-01-29T22:18:24.764Z,-1.60
2023-01-29T22:20:56.023Z,-1.50
2023-01-29T22:23:26.094Z,-1.50
2023-01-29T22:25:55.826Z,-1.50
2023-01-29T22:28:26.949Z,-1.40
2023-01-29T22:31:01.005Z,-1.40
2023-01-29T22:33:30.742Z,-1.30
2023-01-29T22:36:00.999Z,-1.30
2023-01-29T22:38:30.749Z,-1.20
2023-01-29T22:41:02.573Z,-1.20
2023-01-29T22:43:33.502Z,-1.20
2023-01-29T22:46:14.840Z,-1.10
2023-01-29T22:48:45.007Z,-1.10
2023-01-29T22:51:15.065Z,-1.10
2023-01-29T22:53:49.234Z,-1.10
2023-01-29T22:56:20.261Z,-1.10
2023-01-29T22:58:55.410Z,-1.10
2023-01-29T23:01:26.972Z,-1.00
2023-01-29T23:03:57.042Z,-1.00
2023-01-29T23:06:27.463Z,-1.00
2023-01-29T23:08:57.068Z,-1.00
2023-01-29T23:11:26.825Z,-1.00
2023-01-29T23:13:58.143Z,-1.00
2023-01-29T23:16:29.478Z,-0.90
2023-01-29T23:18:59.622Z,-0.90
2023-01-29T23:21:29.614Z,-0.90
2023-01-29T23:24:00.482Z,-0.90
2023-01-29T23:26:48.509Z,-0.80
2023-01-29T23:29:19.819Z,-0.80
2023-01-29T23:31:47.755Z,-0.80
2023-01-29T23:34:17.733Z,-0.80
2023-01-29T23:36:47.684Z,-0.80
2023-01-29T23:39:17.353Z,-0.80
2023-01-29T23:41:47.160Z,-0.80
2023-01-29T23:44:16.972Z,-0.80
2023-01-29T23:46:48.169Z,-0.90
2023-01-29T23:49:18.636Z,-0.80
2023-01-29T23:51:51.262Z,-0.80
2023-01-29T23:54:21.151Z,-0.80
2023-01-29T23:56:50.827Z,-0.80
2023-01-29T23:59:20.682Z,-0.80
